createdAt,value
2023-04-22T00:01:18.432Z,45.82
2023-04-22T00:05:34.800Z,45.93
2023-04-22T00:09:51.026Z,46.37
2023-04-22T00:14:07.298Z,46.33
2023-04-22T00:18:23.703Z,45.34
2023-04-22T00:22:39.995Z,45.26
2023-04-22T00:26:56.368Z,45.39
2023-04-22T00:31:12.731Z,47.98
2023-04-22T00:35:29.070Z,48.84
2023-04-22T00:39:45.875Z,49.67
2023-04-22T00:44:02.221Z,49.03
2023-04-22T00:48:18.846Z,48.32
2023-04-22T00:52:35.170Z,47.16
2023-04-22T00:56:51.519Z,47.11
2023-04-22T01:01:07.886Z,46.70
2023-04-22T01:05:25.906Z,46.74
2023-04-22T01:09:42.498Z,46.20
2023-04-22T01:13:59.049Z,45.98
2023-04-22T01:18:15.828Z,45.62
2023-04-22T01:22:37.193Z,45.84
2023-04-22T01:26:53.726Z,45.58
2023-04-22T01:31:10.288Z,45.54
2023-04-22T01:35:26.685Z,45.08
2023-04-22T01:39:43.339Z,44.87
2023-04-22T01:44:00.642Z,44.39
2023-04-22T01:48:17.006Z,45.08
2023-04-22T01:52:33.312Z,44.93
2023-04-22T01:56:56.121Z,44.50
2023-04-22T02:01:13.279Z,44.10
2023-04-22T02:05:29.671Z,43.65
2023-04-22T02:09:47.396Z,43.72
2023-04-22T02:14:05.022Z,44.06
2023-04-22T02:18:21.269Z,44.35
2023-04-22T02:22:37.857Z,44.19
2023-04-22T02:26:54.136Z,43.55
2023-04-22T02:31:10.549Z,43.66
2023-04-22T02:35:26.895Z,43.93
2023-04-22T02:39:43.151Z,44.60
2023-04-22T02:43:59.530Z,44.55
2023-04-22T02:48:15.941Z,44.37
2023-04-22T02:52:33.659Z,44.43
2023-04-22T02:56:50.047Z,43.10
2023-04-22T03:01:06.358Z,44.29
2023-04-22T03:05:22.859Z,44.54
2023-04-22T03:09:39.589Z,44.12
2023-04-22T03:13:56.128Z,41.87
2023-04-22T03:18:12.467Z,42.03
2023-04-22T03:22:28.771Z,44.60
2023-04-22T03:26:45.287Z,45.40
2023-04-22T03:31:01.596Z,45.63
2023-04-22T03:35:17.865Z,44.64
2023-04-22T03:39:34.121Z,44.65
2023-04-22T03:43:50.455Z,44.64
2023-04-22T03:48:06.866Z,44.96
2023-04-22T03:52:23.197Z,44.28
2023-04-22T03:56:39.528Z,44.58
2023-04-22T04:00:55.885Z,44.26
2023-04-22T04:05:12.448Z,44.78
2023-04-22T04:09:28.906Z,44.57
2023-04-22T04:13:45.213Z,45.34
2023-04-22T04:18:01.820Z,45.44
2023-04-22T04:22:18.688Z,45.41
2023-04-22T04:26:34.949Z,46.10
2023-04-22T04:30:53.831Z,46.61
2023-04-22T04:35:13.213Z,47.43
2023-04-22T04:39:29.793Z,47.84
2023-04-22T04:43:46.648Z,48.34
2023-04-22T04:48:03.363Z,49.07
2023-04-22T04:52:19.727Z,48.73
2023-04-22T04:56:36.084Z,49.43
2023-04-22T05:00:52.394Z,50.18
2023-04-22T05:05:09.415Z,50.31
2023-04-22T05:09:25.751Z,50.50
2023-04-22T05:13:42.131Z,50.33
2023-04-22T05:17:58.452Z,50.66
2023-04-22T05:22:14.822Z,50.10
2023-04-22T05:26:31.077Z,50.10
2023-04-22T05:30:47.345Z,49.94
2023-04-22T05:35:04.293Z,51.78
2023-04-22T05:39:21.121Z,51.25
2023-04-22T05:43:37.566Z,50.51
2023-04-22T05:47:53.974Z,49.91
2023-04-22T05:52:10.249Z,48.91
2023-04-22T05:56:26.779Z,48.67
2023-04-22T06:00:43.082Z,48.41
2023-04-22T06:04:59.855Z,47.82
2023-04-22T06:09:16.408Z,48.93
2023-04-22T06:13:32.739Z,48.98
2023-04-22T06:17:49.929Z,47.74
2023-04-22T06:22:06.328Z,47.58
2023-04-22T06:26:22.653Z,47.42
2023-04-22T06:30:39.022Z,46.21
2023-04-22T06:34:55.328Z,46.45
2023-04-22T06:39:11.808Z,45.49
2023-04-22T06:43:28.101Z,45.35
2023-04-22T06:47:44.484Z,44.33
2023-04-22T06:52:00.852Z,44.45
2023-04-22T06:56:17.252Z,44.51
2023-04-22T07:00:33.657Z,40.94
2023-04-22T07:04:50.002Z,41.17
2023-04-22T07:09:06.422Z,39.74
2023-04-22T07:13:22.687Z,39.16
2023-04-22T07:17:39.121Z,38.92
2023-04-22T07:21:55.603Z,37.53
2023-04-22T07:26:12.072Z,37.18
2023-04-22T07:30:28.346Z,37.99
2023-04-22T07:34:44.605Z,38.03
2023-04-22T07:39:01.032Z,38.73
2023-04-22T07:43:18.373Z,40.18
2023-04-22T07:47:34.725Z,38.59
2023-04-22T07:51:52.462Z,36.78
2023-04-22T07:56:09.106Z,34.63
2023-04-22T08:00:25.369Z,35.06
2023-04-22T08:04:41.976Z,32.52
2023-04-22T08:08:58.278Z,31.64
2023-04-22T08:13:15.336Z,29.96
2023-04-22T08:17:32.781Z,30.41
2023-04-22T08:21:49.116Z,28.92
2023-04-22T08:26:05.711Z,30.95
2023-04-22T08:30:22.159Z,30.07
2023-04-22T08:34:39.027Z,29.07
2023-04-22T08:38:55.643Z,25.76
2023-04-22T08:43:12.525Z,25.20
2023-04-22T08:47:29.291Z,24.20
2023-04-22T08:51:46.280Z,23.59
2023-04-22T08:56:02.934Z,22.26
2023-04-22T09:00:19.646Z,23.48
2023-04-22T09:04:36.830Z,22.48
2023-04-22T09:08:53.390Z,21.93
2023-04-22T09:13:10.552Z,22.24
2023-04-22T09:17:34.647Z,20.49
2023-04-22T09:21:53.697Z,20.65
2023-04-22T09:26:11.181Z,22.97
2023-04-22T09:30:32.279Z,22.01
2023-04-22T09:34:58.626Z,22.28
2023-04-22T09:39:15.147Z,21.25
2023-04-22T09:43:32.858Z,21.48
2023-04-22T09:47:49.165Z,22.23
2023-04-22T09:52:06.202Z,21.96
2023-04-22T09:56:24.187Z,23.49
2023-04-22T10:00:45.080Z,22.35
2023-04-22T10:05:01.813Z,23.87
2023-04-22T10:09:20.887Z,21.83
2023-04-22T10:13:37.170Z,20.90
2023-04-22T10:17:55.389Z,23.32
2023-04-22T10:22:12.222Z,20.64
2023-04-22T10:26:50.724Z,20.77
2023-04-22T10:31:22.498Z,19.81
2023-04-22T10:35:38.862Z,19.97
2023-04-22T10:40:14.213Z,20.56
2023-04-22T10:44:45.792Z,20.11
2023-04-22T10:49:18.382Z,17.74
2023-04-22T10:53:38.118Z,18.91
2023-04-22T10:57:54.750Z,18.49
2023-04-22T11:02:12.242Z,17.06
2023-04-22T11:06:30.576Z,18.59
2023-04-22T11:10:49.030Z,18.07
2023-04-22T11:15:20.282Z,16.99
2023-04-22T11:19:37.007Z,16.05
2023-04-22T11:23:53.716Z,15.50
2023-04-22T11:28:10.633Z,16.70
2023-04-22T11:32:27.497Z,17.80
2023-04-22T11:36:47.309Z,20.52
2023-04-22T11:41:05.273Z,22.09
2023-04-22T11:45:22.088Z,21.17
2023-04-22T11:49:39.536Z,20.78
2023-04-22T11:53:58.382Z,21.72
2023-04-22T11:58:20.400Z,21.79
2023-04-22T12:02:36.749Z,21.38
2023-04-22T12:06:53.042Z,21.22
2023-04-22T12:11:10.890Z,21.26
2023-04-22T12:15:27.243Z,21.44
2023-04-22T12:19:48.283Z,20.82
2023-04-22T12:24:10.801Z,19.36
2023-04-22T12:28:27.071Z,20.71
2023-04-22T12:32:43.383Z,20.68
2023-04-22T12:37:00.008Z,19.83
2023-04-22T12:41:16.785Z,20.32
2023-04-22T12:45:33.132Z,17.51
2023-04-22T12:49:49.601Z,15.91
2023-04-22T12:54:05.910Z,15.78
2023-04-22T12:58:22.212Z,16.46
2023-04-22T13:02:38.681Z,17.45
2023-04-22T13:06:56.678Z,16.46
2023-04-22T13:11:12.910Z,16.80
2023-04-22T13:15:30.390Z,18.38
2023-04-22T13:19:47.775Z,18.80
2023-04-22T13:24:04.232Z,17.86
2023-04-22T13:28:20.630Z,18.08
2023-04-22T13:32:36.929Z,18.54
2023-04-22T13:36:53.341Z,19.37
2023-04-22T13:41:09.737Z,18.88
2023-04-22T13:45:26.409Z,18.80
2023-04-22T13:49:42.834Z,18.82
2023-04-22T13:53:59.769Z,19.20
2023-04-22T13:58:16.039Z,18.61
2023-04-22T14:02:32.435Z,19.23
2023-04-22T14:06:48.801Z,19.49
2023-04-22T14:11:06.722Z,20.40
2023-04-22T14:15:22.999Z,19.41
2023-04-22T14:19:40.203Z,19.88
2023-04-22T14:23:56.690Z,19.36
2023-04-22T14:28:14.020Z,20.32
2023-04-22T14:32:30.518Z,20.45
2023-04-22T14:36:46.747Z,19.25
2023-04-22T14:41:04.014Z,19.18
2023-04-22T14:45:20.336Z,18.48
2023-04-22T14:49:37.021Z,18.27
2023-04-22T14:53:53.347Z,19.13
2023-04-22T14:58:09.796Z,20.34
2023-04-22T15:02:26.175Z,18.97
2023-04-22T15:06:42.818Z,18.28
2023-04-22T15:11:00.090Z,18.07
2023-04-22T15:15:18.179Z,18.53
2023-04-22T15:19:34.491Z,18.54
2023-04-22T15:23:50.802Z,17.98
2023-04-22T15:28:07.194Z,18.46
2023-04-22T15:32:23.469Z,18.40
2023-04-22T15:36:39.783Z,17.41
2023-04-22T15:40:56.088Z,17.89
2023-04-22T15:45:12.587Z,18.20
2023-04-22T15:49:28.855Z,18.46
2023-04-22T15:53:48.482Z,17.89
2023-04-22T15:58:05.214Z,17.60
2023-04-22T16:02:21.711Z,18.00
2023-04-22T16:06:38.718Z,17.71
2023-04-22T16:10:55.050Z,17.44
2023-04-22T16:15:11.819Z,17.63
2023-04-22T16:19:28.262Z,17.97
2023-04-22T16:23:45.688Z,17.76
2023-04-22T16:28:02.051Z,18.53
2023-04-22T16:32:18.333Z,18.50
2023-04-22T16:36:34.703Z,18.30
2023-04-22T16:40:54.368Z,17.82
2023-04-22T16:45:10.931Z,19.15
2023-04-22T16:49:27.230Z,18.42
2023-04-22T16:53:43.798Z,19.30
2023-04-22T16:58:02.944Z,19.58
2023-04-22T17:02:19.977Z,19.80
2023-04-22T17:06:39.138Z,19.90
2023-04-22T17:10:56.517Z,18.52
2023-04-22T17:15:12.971Z,18.58
2023-04-22T17:19:29.281Z,18.67
2023-04-22T17:23:45.517Z,20.09
2023-04-22T17:28:03.797Z,20.21
2023-04-22T17:32:22.217Z,20.92
2023-04-22T17:36:40.568Z,21.51
2023-04-22T17:40:56.848Z,22.73
2023-04-22T17:45:15.557Z,23.26
2023-04-22T17:49:32.226Z,23.70
2023-04-22T17:53:48.455Z,24.43
2023-04-22T17:58:07.274Z,26.55
2023-04-22T18:02:27.342Z,27.62
2023-04-22T18:06:43.645Z,28.55
2023-04-22T18:11:02.029Z,27.45
2023-04-22T18:15:21.431Z,26.51
2023-04-22T18:19:38.157Z,27.10
2023-04-22T18:23:54.676Z,28.55
2023-04-22T18:28:11.759Z,30.10
2023-04-22T18:32:31.543Z,29.41
2023-04-22T18:36:49.204Z,30.08
2023-04-22T18:41:06.122Z,30.41
2023-04-22T18:45:25.316Z,30.56
2023-04-22T18:49:43.049Z,30.59
2023-04-22T18:54:01.759Z,31.57
2023-04-22T19:02:59.744Z,32.01
2023-04-22T19:07:27.616Z,32.08
2023-04-22T19:11:44.691Z,32.29
2023-04-22T19:16:01.412Z,32.04
2023-04-22T19:20:19.923Z,32.45
2023-04-22T19:24:36.377Z,32.97
2023-04-22T19:28:52.614Z,33.35
2023-04-22T19:33:09.998Z,34.00
2023-04-22T19:37:28.615Z,34.40
2023-04-22T19:41:44.858Z,34.97
2023-04-22T19:46:03.338Z,35.30
2023-04-22T19:50:21.131Z,35.46
2023-04-22T19:54:39.765Z,35.58
2023-04-22T19:58:59.209Z,36.10
2023-04-22T20:03:18.365Z,36.31
2023-04-22T20:07:35.668Z,36.21
2023-04-22T20:11:53.913Z,36.47
2023-04-22T20:16:12.803Z,36.68
2023-04-22T20:20:31.312Z,37.08
2023-04-22T20:24:48.449Z,36.70
2023-04-22T20:29:08.167Z,37.00
2023-04-22T20:33:24.949Z,36.49
2023-04-22T20:37:41.408Z,36.68
2023-04-22T20:41:58.708Z,36.83
2023-04-22T20:46:15.076Z,35.88
2023-04-22T20:50:34.743Z,35.89
2023-04-22T20:54:57.948Z,36.87
2023-04-22T20:59:14.369Z,41.21
2023-04-22T21:03:31.216Z,41.02
2023-04-22T21:07:50.291Z,40.30
2023-04-22T21:12:06.921Z,38.87
2023-04-22T21:16:30.744Z,39.89
2023-04-22T21:20:48.772Z,39.72
2023-04-22T21:25:06.281Z,39.41
2023-04-22T21:29:22.749Z,39.54
2023-04-22T21:33:39.046Z,39.40
2023-04-22T21:37:55.727Z,39.80
2023-04-22T21:42:12.091Z,40.38
2023-04-22T21:46:28.449Z,41.58
2023-04-22T21:50:44.717Z,40.84
2023-04-22T21:55:01.080Z,40.68
2023-04-22T21:59:17.406Z,41.01
2023-04-22T22:03:33.949Z,41.97
2023-04-22T22:07:50.403Z,42.12
2023-04-22T22:12:07.591Z,41.99
2023-04-22T22:16:24.910Z,43.15
2023-04-22T22:20:41.333Z,43.23
2023-04-22T22:24:57.678Z,43.31
2023-04-22T22:29:16.910Z,43.82
2023-04-22T22:33:33.283Z,44.56
2023-04-22T22:37:49.701Z,44.75
2023-04-22T22:42:06.138Z,45.49
2023-04-22T22:46:23.139Z,45.20
2023-04-22T22:50:40.189Z,45.81
2023-04-22T22:54:56.481Z,45.44
2023-04-22T22:59:12.861Z,45.75
2023-04-22T23:03:29.454Z,45.63
2023-04-22T23:07:45.870Z,44.85
2023-04-22T23:12:02.934Z,44.91
2023-04-22T23:16:19.388Z,44.81
2023-04-22T23:20:36.628Z,44.59
2023-04-22T23:24:53.229Z,45.42
2023-04-22T23:29:09.713Z,45.46
2023-04-22T23:33:26.592Z,45.50
2023-04-22T23:37:46.570Z,45.94
2023-04-22T23:42:02.941Z,45.14
2023-04-22T23:46:19.348Z,45.08
2023-04-22T23:50:36.462Z,45.70
2023-04-22T23:54:53.044Z,46.52
2023-04-22T23:59:09.616Z,45.74
